Time;durP1;ratioP1;P1;durP2;ratioP2;P2;SDS_P1;SDS_P2;PMS_P1;PMS_P2;Temp;Humidity;BMP_temperature;BMP_pressure;BME280_temperature;BME280_humidity;BME280_pressure;Samples;Min_cycle;Max_cycle;Signal;HPM_P1;HPM_P2
2022/05/13 06:23:48;;;;;;;;;4.00;2.00;;;;;16.24;97.04;101535.41;6387373;22;45434;-93
2022/05/13 06:26:13;;;;;;;;;4.00;3.00;;;;;16.31;96.82;101543.63;6371028;22;45429;-95
2022/05/13 06:28:39;;;;;;;;;1.00;1.00;;;;;16.37;96.78;101539.38;6370213;22;54301;-95
2022/05/13 06:31:05;;;;;;;;;1.00;1.00;;;;;16.41;96.59;101533.38;6371866;22;45276;-94
2022/05/13 06:33:31;;;;;;;;;1.00;1.00;;;;;16.50;96.72;101551.31;6371047;22;45317;-94
2022/05/13 06:35:56;;;;;;;;;2.67;1.00;;;;;16.57;96.90;101548.00;6371872;22;45411;-94
2022/05/13 06:38:22;;;;;;;;;1.33;1.33;;;;;16.69;97.31;101543.97;6370111;22;48048;-94
2022/05/13 06:40:53;;;;;;;;;3.00;1.00;;;;;16.80;97.04;101545.22;6371028;22;45297;-94
2022/05/13 06:43:18;;;;;;;;;1.33;1.33;;;;;17.07;97.13;101554.00;6371117;22;45446;-94
2022/05/13 06:45:44;;;;;;;;;1.00;1.00;;;;;17.32;96.55;101557.44;6370904;22;45418;-93
2022/05/13 06:48:10;;;;;;;;;4.00;2.00;;;;;17.48;96.26;101561.47;6404530;22;46202;-95
2022/05/13 06:50:36;;;;;;;;;1.67;1.67;;;;;17.55;96.60;101562.53;6370194;22;45334;-94
2022/05/13 06:53:03;;;;;;;;;2.00;1.00;;;;;17.50;95.96;101557.09;6373274;22;45322;-93
2022/05/13 06:55:29;;;;;;;;;1.33;1.33;;;;;17.61;95.89;101573.34;6371433;22;45265;-95
2022/05/13 06:57:56;;;;;;;;;2.33;2.00;;;;;17.59;95.28;101574.16;6400043;22;45430;-95
2022/05/13 07:00:22;;;;;;;;;1.67;1.00;;;;;17.62;95.11;101582.22;6371166;22;45296;-95
2022/05/13 07:02:47;;;;;;;;;2.00;1.00;;;;;17.64;95.52;101588.47;6374213;22;45406;-95
2022/05/13 07:05:15;;;;;;;;;2.00;2.00;;;;;17.67;95.03;101592.97;6372023;22;45626;-95
2022/05/13 07:07:41;;;;;;;;;1.67;1.67;;;;;17.70;95.04;101591.31;6370160;22;47596;-94
2022/05/13 07:10:08;;;;;;;;;2.33;1.67;;;;;17.78;94.87;101582.66;6369976;22;45609;-95
2022/05/13 07:12:33;;;;;;;;;4.33;1.33;;;;;17.81;95.25;101581.00;6369089;22;45237;-94
2022/05/13 07:14:59;;;;;;;;;2.67;2.00;;;;;17.95;94.62;101594.69;6369662;22;45367;-93
2022/05/13 07:17:25;;;;;;;;;2.00;0.67;;;;;18.00;94.48;101602.75;6369074;22;47881;-93
2022/05/13 07:19:50;;;;;;;;;0.00;0.00;;;;;18.12;94.11;101604.84;6369926;22;45796;-89
2022/05/13 07:22:16;;;;;;;;;1.67;1.00;;;;;18.24;93.55;101609.66;6397452;22;45324;-89
2022/05/13 07:24:42;;;;;;;;;1.00;1.00;;;;;18.30;93.18;101616.88;6365404;22;45458;-87
2022/05/13 07:27:07;;;;;;;;;1.00;1.00;;;;;18.34;92.31;101617.88;6396665;22;46100;-88
2022/05/13 07:29:33;;;;;;;;;1.67;1.67;;;;;18.40;91.95;101623.38;6371085;22;45410;-86
2022/05/13 07:31:58;;;;;;;;;2.00;2.00;;;;;18.41;91.95;101617.19;6407630;22;45518;-88
2022/05/13 07:34:24;;;;;;;;;2.33;2.33;;;;;18.51;92.19;101621.88;6382641;22;45276;-87
2022/05/13 07:36:53;;;;;;;;;1.33;1.00;;;;;18.58;91.80;101630.91;6411684;22;45520;-88
2022/05/13 07:42:05;;;;;;;;;2.00;1.00;;;;;18.71;91.40;101632.13;6396991;22;45309;-87
2022/05/13 07:44:31;;;;;;;;;1.67;1.00;;;;;18.80;91.49;101634.13;6371088;22;45497;-89
2022/05/13 07:46:56;;;;;;;;;0.33;0.33;;;;;18.89;91.10;101638.75;6401400;22;45268;-89
2022/05/13 07:49:22;;;;;;;;;2.00;1.00;;;;;18.94;90.92;101641.56;6369730;22;45288;-88
2022/05/13 07:51:47;;;;;;;;;1.00;1.00;;;;;19.01;91.06;101647.94;6368329;22;45305;-88
2022/05/13 07:54:13;;;;;;;;;1.00;1.00;;;;;19.10;90.88;101649.03;6369823;22;45418;-88
2022/05/13 07:56:38;;;;;;;;;0.00;0.00;;;;;19.20;90.67;101657.28;6398815;22;45405;-88
2022/05/13 07:59:03;;;;;;;;;1.00;1.00;;;;;19.26;90.23;101656.53;6397017;22;55507;-89
2022/05/13 08:01:29;;;;;;;;;2.00;2.00;;;;;19.30;90.07;101653.09;6398254;22;45796;-87
2022/05/13 08:03:56;;;;;;;;;2.00;2.00;;;;;19.37;90.55;101659.44;6397405;22;45293;-88
2022/05/13 08:06:22;;;;;;;;;2.33;2.00;;;;;19.46;90.39;101649.00;6369043;22;47054;-88
2022/05/13 08:08:53;;;;;;;;;2.00;2.00;;;;;19.53;90.43;101650.06;6363946;22;45887;-88
2022/05/13 08:11:19;;;;;;;;;1.67;1.00;;;;;19.62;90.32;101649.34;6367404;22;45378;-89
2022/05/13 08:13:45;;;;;;;;;4.00;2.00;;;;;19.68;89.87;101652.16;6368474;22;45671;-88
2022/05/13 08:16:18;;;;;;;;;1.00;1.00;;;;;19.78;89.89;101650.59;6369386;22;47121;-88
2022/05/13 08:18:44;;;;;;;;;2.00;2.00;;;;;19.85;89.87;101657.84;6368434;22;45358;-88
2022/05/13 08:21:10;;;;;;;;;1.00;1.00;;;;;19.95;89.70;101650.03;6397069;22;45331;-89
2022/05/13 08:23:36;;;;;;;;;2.00;2.00;;;;;19.97;88.91;101662.53;6367676;22;45447;-89
2022/05/13 08:26:03;;;;;;;;;2.00;2.00;;;;;19.90;89.02;101660.59;6373574;22;46801;-90
2022/05/13 08:28:29;;;;;;;;;3.00;1.67;;;;;19.99;89.15;101660.81;6395543;22;45323;-87
2022/05/13 08:30:54;;;;;;;;;2.33;2.33;;;;;20.12;88.96;101657.53;6398360;22;45283;-88
2022/05/13 08:33:20;;;;;;;;;1.00;1.00;;;;;20.28;89.15;101650.75;6368356;22;45277;-88
2022/05/13 08:35:49;;;;;;;;;2.00;2.00;;;;;20.51;89.16;101650.28;6397943;22;46519;-89
2022/05/13 08:38:17;;;;;;;;;2.00;2.00;;;;;20.64;88.47;101660.28;6369720;22;45400;-87
2022/05/13 08:40:49;;;;;;;;;2.00;1.00;;;;;20.76;88.74;101659.59;6370404;22;45282;-88
2022/05/13 08:43:18;;;;;;;;;2.00;2.00;;;;;20.72;88.28;101663.06;6390244;22;45189;-88
2022/05/13 08:45:50;;;;;;;;;1.00;1.00;;;;;20.77;88.04;101661.38;6424662;22;45233;-89
2022/05/13 08:48:20;;;;;;;;;1.00;1.00;;;;;20.84;87.92;101677.50;6415085;22;45413;-88
2022/05/13 08:51:13;;;;;;;;;1.00;1.00;;;;;20.71;86.28;101693.31;6392326;22;45397;-89
2022/05/13 08:53:49;;;;;;;;;1.00;0.33;;;;;20.47;85.81;101702.63;6392594;22;44853;-88
2022/05/13 08:56:21;;;;;;;;;3.00;2.00;;;;;20.21;84.91;101711.91;6393878;22;46989;-88
2022/05/13 08:58:57;;;;;;;;;0.67;0.67;;;;;20.00;85.33;101704.31;6382305;22;44812;-89
2022/05/13 09:01:32;;;;;;;;;0.00;0.00;;;;;19.97;84.85;101706.94;6412763;22;45352;-89
2022/05/13 09:04:04;;;;;;;;;1.00;1.00;;;;;20.04;84.35;101716.88;6383946;22;45237;-90
2022/05/13 09:06:48;;;;;;;;;0.00;0.00;;;;;20.13;83.31;101723.25;6387649;22;47881;-89
2022/05/13 09:09:15;;;;;;;;;0.00;0.00;;;;;20.26;83.13;101730.66;6415946;22;45295;-90
2022/05/13 09:12:12;;;;;;;;;0.00;0.00;;;;;20.39;82.63;101726.47;6349533;22;45451;-90
2022/05/13 09:14:45;;;;;;;;;1.00;1.00;;;;;20.47;81.57;101733.72;6392111;22;45354;-90
2022/05/13 09:17:19;;;;;;;;;1.00;1.00;;;;;20.65;81.65;101749.19;6385190;22;48183;-90
2022/05/13 09:19:50;;;;;;;;;1.00;1.00;;;;;20.91;81.52;101746.13;6378859;22;45374;-89
2022/05/13 09:22:15;;;;;;;;;0.00;0.00;;;;;21.27;81.64;101740.53;6377570;22;45506;-90
2022/05/13 09:24:41;;;;;;;;;1.33;1.00;;;;;21.70;81.35;101748.31;6376964;22;45327;-90
2022/05/13 09:27:07;;;;;;;;;1.00;1.00;;;;;22.02;80.65;101764.81;6369626;22;48358;-90
2022/05/13 09:29:41;;;;;;;;;1.67;1.67;;;;;22.12;80.47;101761.41;6400710;22;45593;-89
2022/05/13 09:32:21;;;;;;;;;0.00;0.00;;;;;22.23;79.22;101777.59;6399208;22;45241;-90
2022/05/13 09:34:47;;;;;;;;;1.00;1.00;;;;;22.36;78.99;101783.09;6371471;22;45327;-89
2022/05/13 09:37:20;;;;;;;;;1.00;0.00;;;;;22.84;79.13;101767.59;6405544;22;45265;-89
2022/05/13 09:39:47;;;;;;;;;1.33;0.00;;;;;24.29;80.50;101764.22;6379847;22;45354;-87
2022/05/13 09:42:33;;;;;;;;;0.00;0.00;;;;;25.69;79.57;101777.81;6409642;22;45235;-87
2022/05/13 09:45:17;;;;;;;;;1.00;1.00;;;;;26.58;78.02;101795.50;6407341;22;45676;-88
2022/05/13 09:47:46;;;;;;;;;1.33;1.00;;;;;26.97;77.10;101811.41;6411590;22;45377;-88
2022/05/13 09:50:22;;;;;;;;;0.00;0.00;;;;;27.47;75.88;101817.38;6406032;22;45324;-89
2022/05/13 09:52:49;;;;;;;;;0.00;0.00;;;;;27.20;74.12;101853.50;6376486;22;45379;-89
2022/05/13 09:55:36;;;;;;;;;0.67;0.67;;;;;26.53;72.31;101946.28;6377370;22;45255;-87
2022/05/13 09:58:05;;;;;;;;;0.00;0.00;;;;;26.30;72.44;101944.50;6376977;22;47151;-88
2022/05/13 10:00:36;;;;;;;;;0.33;0.33;;;;;29.05;76.61;101895.66;6379847;22;45839;-88
2022/05/13 10:03:17;;;;;;;;;1.33;1.33;;;;;32.27;74.33;101948.78;6407914;22;45365;-89
2022/05/13 10:05:43;;;;;;;;;2.00;1.00;;;;;32.69;68.32;101969.38;6375757;22;45367;-89
2022/05/13 10:08:14;;;;;;;;;0.00;0.00;;;;;31.58;65.95;101988.50;6396438;22;46247;-88
2022/05/13 10:13:59;;;;;;;;;1.00;1.00;;;;;34.92;67.27;101975.59;6397499;22;45588;-89
2022/05/13 10:16:44;;;;;;;;;0.33;0.33;;;;;37.94;64.45;101993.25;6368405;22;45459;-89
2022/05/13 10:19:19;;;;;;;;;0.00;0.00;;;;;38.03;61.50;102001.94;6366178;22;47026;-88
2022/05/13 10:21:47;;;;;;;;;0.33;0.33;;;;;37.59;58.36;102005.03;6363995;22;45333;-89
2022/05/13 10:24:36;;;;;;;;;0.67;0.00;;;;;38.62;58.59;102003.44;6397961;22;45254;-92
2022/05/13 10:27:03;;;;;;;;;0.00;0.00;;;;;40.44;58.43;101996.56;6370005;22;45555;-89
2022/05/13 10:29:48;;;;;;;;;1.67;0.00;;;;;42.48;55.76;101998.75;6369480;22;47062;-89
2022/05/13 10:32:24;;;;;;;;;0.00;0.00;;;;;44.13;53.26;102016.00;6370048;22;45492;-89
2022/05/13 10:34:54;;;;;;;;;0.00;0.00;;;;;45.39;50.75;102015.09;6370168;22;45307;-89
2022/05/13 10:37:34;;;;;;;;;0.00;0.00;;;;;46.58;50.26;102006.69;6398094;22;45392;-89
2022/05/13 10:40:04;;;;;;;;;0.00;0.00;;;;;47.75;47.66;102008.97;6369495;22;47004;-90
2022/05/13 10:42:41;;;;;;;;;0.00;0.00;;;;;48.76;45.56;102014.09;6370261;22;45325;-89
2022/05/13 10:45:25;;;;;;;;;0.00;0.00;;;;;49.56;43.33;102017.22;6407036;22;45329;-94
2022/05/13 10:48:03;;;;;;;;;0.33;0.33;;;;;50.23;42.29;102003.78;6371625;22;45590;-95
2022/05/13 10:50:34;;;;;;;;;0.33;0.33;;;;;50.92;41.38;102007.56;6370767;22;47199;-93
2022/05/13 10:53:18;;;;;;;;;0.00;0.00;;;;;51.55;39.82;102005.38;6371279;22;45354;-94
2022/05/13 10:56:10;;;;;;;;;0.00;0.00;;;;;52.18;38.62;101997.25;6370573;22;45411;-93
2022/05/13 10:58:50;;;;;;;;;0.00;0.00;;;;;52.66;37.95;102000.19;6368499;22;45541;-94
2022/05/13 11:01:54;;;;;;;;;0.33;0.33;;;;;53.00;36.54;101998.94;6369466;22;47315;-93
2022/05/13 11:04:22;;;;;;;;;0.00;0.00;;;;;53.33;36.08;101995.03;6370050;22;45397;-94
2022/05/13 11:07:04;;;;;;;;;0.00;0.00;;;;;53.85;35.08;102002.78;6370862;22;45480;-94
2022/05/13 11:09:47;;;;;;;;;1.00;1.00;;;;;54.30;33.75;101999.16;6372571;22;45509;-93
2022/05/13 11:12:49;;;;;;;;;0.33;0.33;;;;;54.67;33.80;101992.69;6372001;22;46726;-94
2022/05/13 11:15:32;;;;;;;;;0.00;0.00;;;;;54.98;32.52;101993.47;6371205;22;45416;-94
2022/05/13 11:18:06;;;;;;;;;0.00;0.00;;;;;55.17;32.52;102004.06;6400546;22;45432;-93
2022/05/13 11:20:55;;;;;;;;;1.00;0.00;;;;;55.36;31.57;102004.44;6374768;22;45463;-95
2022/05/13 11:23:32;;;;;;;;;0.00;0.00;;;;;55.60;30.79;102002.28;6372938;22;47085;-95
2022/05/13 11:26:21;;;;;;;;;1.00;0.00;;;;;56.05;31.53;101998.28;6370854;22;45318;-90
2022/05/13 11:29:02;;;;;;;;;0.00;0.00;;;;;56.35;30.87;101997.13;6396686;22;45414;-90
2022/05/13 11:31:37;;;;;;;;;1.00;0.00;;;;;56.70;30.60;101995.31;6401139;22;45485;-89
2022/05/13 11:34:30;;;;;;;;;0.00;0.00;;;;;57.08;29.95;101993.88;6369216;22;47401;-89
2022/05/13 11:36:58;;;;;;;;;0.00;0.00;;;;;57.44;29.03;101994.53;6398284;22;45410;-90
2022/05/13 11:39:45;;;;;;;;;0.00;0.00;;;;;57.79;29.05;101993.38;6398214;22;45426;-90
2022/05/13 11:42:27;;;;;;;;;0.00;0.00;;;;;57.55;28.34;101981.75;6397377;22;45281;-89
2022/05/13 11:44:52;;;;;;;;;0.00;0.00;;;;;57.86;29.06;101986.88;6369255;22;47139;-90
2022/05/13 11:47:56;;;;;;;;;0.00;0.00;;;;;58.28;28.25;101988.50;6369460;22;45683;-90
2022/05/13 11:50:31;;;;;;;;;1.00;1.00;;;;;58.63;27.45;101988.09;6341376;22;45323;-91
2022/05/13 11:52:58;;;;;;;;;0.00;0.00;;;;;58.60;27.29;101986.59;6401340;22;45311;-90
2022/05/13 11:55:29;;;;;;;;;0.00;0.00;;;;;58.79;26.54;101981.00;6396827;22;46707;-91
2022/05/13 11:57:55;;;;;;;;;0.00;0.00;;;;;58.89;26.54;101986.22;6369930;22;45432;-91
2022/05/13 12:00:38;;;;;;;;;0.00;0.00;;;;;58.84;26.14;101980.38;6368677;22;45329;-91
2022/05/13 12:03:09;;;;;;;;;0.00;0.00;;;;;59.06;25.83;101976.25;6370179;22;45370;-92
2022/05/13 12:05:57;;;;;;;;;0.00;0.00;;;;;59.32;26.26;101983.66;6400318;22;46409;-88
2022/05/13 12:08:37;;;;;;;;;0.33;0.00;;;;;59.70;26.41;101973.28;6377797;22;45338;-88
2022/05/13 12:11:02;;;;;;;;;0.00;0.00;;;;;60.16;25.92;101974.09;6403040;22;45366;-87
2022/05/13 12:13:36;;;;;;;;;0.00;0.00;;;;;60.56;25.81;101969.81;6374063;22;45645;-88
2022/05/13 12:16:32;;;;;;;;;0.00;0.00;;;;;61.00;25.16;101966.75;6403015;22;46552;-87
2022/05/13 12:19:46;;;;;;;;;1.00;1.00;;;;;61.17;24.67;101957.47;6405390;22;45347;-89
2022/05/13 12:22:29;;;;;;;;;0.00;0.00;;;;;61.29;25.11;101962.34;6344093;22;45412;-88
2022/05/13 12:25:04;;;;;;;;;0.67;0.67;;;;;61.40;24.44;101967.13;6360082;22;44847;-91
2022/05/13 12:28:01;;;;;;;;;0.00;0.00;;;;;61.58;24.03;101968.09;6422183;22;45259;-94
2022/05/13 12:30:31;;;;;;;;;0.00;0.00;;;;;61.44;23.33;101958.97;6383264;22;44789;-92
2022/05/13 12:33:23;;;;;;;;;0.00;0.00;;;;;61.42;24.38;101958.38;6410708;22;45344;-93
2022/05/13 12:39:11;;;;;;;;;0.00;0.00;;;;;61.85;24.10;101956.19;6403232;22;45280;-88
2022/05/13 12:41:42;;;;;;;;;0.00;0.00;;;;;62.37;23.70;101953.56;6391888;22;45384;-88
2022/05/13 12:44:14;;;;;;;;;0.67;0.00;;;;;62.71;23.35;101943.34;6371818;22;45257;-88
2022/05/13 12:47:12;;;;;;;;;0.67;0.00;;;;;63.16;23.36;101947.22;6400623;22;45253;-88
2022/05/13 12:49:56;;;;;;;;;1.00;0.00;;;;;63.96;22.54;101939.47;6395530;22;45335;-90
2022/05/13 12:52:34;;;;;;;;;0.00;0.00;;;;;64.56;21.83;101932.97;6396758;22;45277;-88
2022/05/13 12:55:18;;;;;;;;;0.00;0.00;;;;;65.11;23.16;101937.66;6367990;22;45304;-89
2022/05/13 12:57:49;;;;;;;;;0.33;0.00;;;;;65.49;21.98;101933.00;6364429;22;45441;-89
2022/05/13 13:00:22;;;;;;;;;0.00;0.00;;;;;65.72;21.53;101934.53;6401093;22;45418;-89
2022/05/13 13:02:52;;;;;;;;;0.00;0.00;;;;;65.97;21.31;101932.91;6399228;22;45451;-89
2022/05/13 13:05:27;;;;;;;;;0.00;0.00;;;;;66.16;22.23;101922.91;6370927;22;45244;-88
2022/05/13 13:07:54;;;;;;;;;1.00;0.00;;;;;66.71;21.36;101930.94;6367967;22;45362;-88
2022/05/13 13:10:22;;;;;;;;;0.00;0.00;;;;;67.36;21.40;101927.66;6370082;22;47616;-89
2022/05/13 13:13:02;;;;;;;;;0.00;0.00;;;;;67.96;20.84;101928.78;6400322;22;45738;-89
2022/05/13 13:15:33;;;;;;;;;0.00;0.00;;;;;68.25;20.89;101915.69;6398541;22;45543;-89
2022/05/13 13:18:01;;;;;;;;;1.00;0.00;;;;;68.64;20.73;101913.94;6370642;22;45300;-89
2022/05/13 13:20:29;;;;;;;;;0.00;0.00;;;;;69.01;20.50;101917.22;6369410;22;48467;-90
2022/05/13 13:23:00;;;;;;;;;0.00;0.00;;;;;69.28;20.48;101906.31;6401161;22;45411;-89
2022/05/13 13:25:40;;;;;;;;;0.00;0.00;;;;;69.74;20.12;101907.69;6367950;22;45264;-89
2022/05/13 13:28:10;;;;;;;;;0.00;0.00;;;;;70.25;19.99;101901.41;6396731;22;45657;-89
2022/05/13 13:30:42;;;;;;;;;0.00;0.00;;;;;70.68;19.72;101904.34;6397707;22;46222;-90
2022/05/13 13:33:09;;;;;;;;;0.00;0.00;;;;;71.07;19.50;101900.09;6399712;22;45280;-88
2022/05/13 13:35:37;;;;;;;;;0.00;0.00;;;;;71.55;19.60;101899.09;6399512;22;45260;-88
2022/05/13 13:38:05;;;;;;;;;0.75;0.00;;;;;71.75;18.77;101896.84;6369291;22;45561;-89
2022/05/13 13:40:35;;;;;;;;;0.25;0.25;;;;;71.64;18.46;101896.25;6398567;22;45384;-89
2022/05/13 13:43:09;;;;;;;;;0.25;0.25;;;;;71.57;18.38;101894.69;6369205;22;45453;-88
2022/05/13 13:45:35;;;;;;;;;0.00;0.00;;;;;71.39;18.51;101897.41;6370466;22;45285;-90
2022/05/13 13:48:00;;;;;;;;;0.00;0.00;;;;;71.34;17.53;101888.03;6371245;22;45454;-91
2022/05/13 13:50:30;;;;;;;;;1.00;0.00;;;;;70.91;18.48;101887.22;6369425;22;46879;-90
2022/05/13 13:52:57;;;;;;;;;0.00;0.00;;;;;70.19;18.67;101888.25;6398096;22;45481;-89
2022/05/13 13:55:39;;;;;;;;;0.00;0.00;;;;;69.68;18.83;101876.44;6398378;22;45482;-89
2022/05/13 13:58:46;;;;;;;;;0.00;0.00;;;;;69.12;18.43;101874.06;6400458;22;45376;-91
2022/05/13 14:01:19;;;;;;;;;0.00;0.00;;;;;68.54;19.35;101863.22;6369254;22;47334;-90
2022/05/13 14:03:45;;;;;;;;;0.00;0.00;;;;;67.98;18.70;101866.31;6371856;22;46258;-87
2022/05/13 14:06:19;;;;;;;;;0.00;0.00;;;;;67.36;18.99;101864.69;6371506;22;45284;-90
2022/05/13 14:08:50;;;;;;;;;0.00;0.00;;;;;66.90;18.95;101866.56;6397088;22;45582;-89
2022/05/13 14:11:20;;;;;;;;;0.00;0.00;;;;;66.54;19.20;101859.78;6369206;22;47301;-89
2022/05/13 14:13:49;;;;;;;;;0.00;0.00;;;;;66.23;19.35;101857.78;6364731;22;45443;-88
2022/05/13 14:16:19;;;;;;;;;0.00;0.00;;;;;66.13;19.53;101852.06;6369331;22;45299;-89
2022/05/13 14:18:46;;;;;;;;;0.50;0.00;;;;;65.84;19.17;101851.44;6370376;22;45402;-90
2022/05/13 14:21:16;;;;;;;;;0.00;0.00;;;;;65.58;19.53;101850.50;6397361;22;45433;-92
2022/05/13 14:23:42;;;;;;;;;0.00;0.00;;;;;65.38;19.83;101850.19;6367342;22;45904;-88
2022/05/13 14:26:10;;;;;;;;;0.00;0.00;;;;;65.33;19.90;101847.31;6368919;22;45333;-89
2022/05/13 14:28:49;;;;;;;;;0.00;0.00;;;;;65.37;20.08;101850.47;6398393;22;45683;-89
2022/05/13 14:31:36;;;;;;;;;0.00;0.00;;;;;65.30;19.98;101845.00;6371091;22;47129;-88
2022/05/13 14:34:10;;;;;;;;;0.00;0.00;;;;;65.24;19.44;101855.53;6371195;22;45816;-87
2022/05/13 14:36:41;;;;;;;;;0.00;0.00;;;;;65.00;19.78;101854.00;6369310;22;45406;-89
2022/05/13 14:42:32;;;;;;;;;0.25;0.00;;;;;64.61;20.26;101846.63;6397191;22;45278;-88
2022/05/13 14:45:00;;;;;;;;;0.00;0.00;;;;;64.27;20.99;101844.91;6369552;22;45305;-89
2022/05/13 14:47:25;;;;;;;;;0.75;0.00;;;;;63.28;20.63;101836.13;6370082;22;45388;-89
2022/05/13 14:49:56;;;;;;;;;0.00;0.00;;;;;60.75;21.04;101837.38;6398561;22;45628;-88
2022/05/13 14:52:30;;;;;;;;;0.50;0.00;;;;;57.58;22.18;101826.09;6398165;22;48373;-87
2022/05/13 14:54:57;;;;;;;;;0.00;0.00;;;;;54.49;22.59;101828.25;6367270;22;45626;-88
2022/05/13 14:57:23;;;;;;;;;0.00;0.00;;;;;51.67;24.02;101824.97;6396294;22;45782;-89
2022/05/13 15:00:04;;;;;;;;;0.33;0.00;;;;;49.06;25.39;101832.84;6398453;22;45291;-89
2022/05/13 15:02:33;;;;;;;;;0.00;0.00;;;;;46.67;26.00;101827.34;6397384;22;48005;-88
2022/05/13 15:05:34;;;;;;;;;0.00;0.00;;;;;44.35;26.72;101827.06;6368452;22;45970;-87
2022/05/13 15:07:59;;;;;;;;;0.00;0.00;;;;;42.58;27.94;101827.88;6368999;22;45398;-89
2022/05/13 15:10:25;;;;;;;;;0.33;0.00;;;;;41.07;28.81;101823.81;6368960;22;45328;-90
2022/05/13 15:12:53;;;;;;;;;0.00;0.00;;;;;39.73;29.60;101817.72;6397385;22;45919;-90
2022/05/13 15:15:19;;;;;;;;;0.00;0.00;;;;;38.59;30.67;101822.59;6369510;22;45356;-90
2022/05/13 15:17:50;;;;;;;;;1.00;1.00;;;;;37.56;31.76;101825.38;6370006;22;45440;-91
2022/05/13 15:20:24;;;;;;;;;1.00;1.00;;;;;36.63;32.56;101823.59;6369420;22;45225;-91
2022/05/13 15:22:50;;;;;;;;;0.00;0.00;;;;;35.82;33.14;101816.41;6367379;22;48365;-90
2022/05/13 15:25:20;;;;;;;;;0.00;0.00;;;;;35.10;33.79;101814.91;6368489;22;45650;-89
2022/05/13 15:27:45;;;;;;;;;0.00;0.00;;;;;34.44;34.98;101812.06;6397622;22;45303;-89
2022/05/13 15:30:11;;;;;;;;;1.00;1.00;;;;;33.88;35.21;101812.34;6368944;22;45316;-90
2022/05/13 15:32:36;;;;;;;;;1.00;0.00;;;;;33.32;35.90;101826.06;6368712;22;47929;-90
2022/05/13 15:35:02;;;;;;;;;0.00;0.00;;;;;32.77;36.35;101822.38;6368026;22;45622;-89
2022/05/13 15:37:28;;;;;;;;;0.00;0.00;;;;;32.25;36.97;101817.56;6368806;22;45392;-89
2022/05/13 15:39:54;;;;;;;;;1.00;1.00;;;;;31.85;37.79;101815.94;6397672;22;45386;-88
2022/05/13 15:42:22;;;;;;;;;0.00;0.00;;;;;31.45;38.40;101815.19;6397402;22;46274;-89
2022/05/13 15:44:48;;;;;;;;;0.33;0.33;;;;;31.07;38.86;101817.94;6368866;22;45509;-89
2022/05/13 15:47:17;;;;;;;;;0.00;0.00;;;;;30.71;39.54;101819.66;6397768;22;45637;-89
2022/05/13 15:52:42;;;;;;;;;3.00;1.00;;;;;30.08;40.34;101817.34;6397157;22;45256;-89
2022/05/13 15:55:09;;;;;;;;;0.33;0.33;;;;;29.79;40.58;101808.91;6368534;22;45184;-89
2022/05/13 15:57:44;;;;;;;;;2.00;1.00;;;;;29.58;41.45;101811.06;6397416;22;45427;-89
2022/05/13 16:00:17;;;;;;;;;0.00;0.00;;;;;29.37;41.31;101815.91;6369299;22;45391;-88
2022/05/13 16:02:47;;;;;;;;;0.00;0.00;;;;;29.13;42.38;101815.41;6397172;22;46586;-89
2022/05/13 16:05:14;;;;;;;;;0.00;0.00;;;;;28.93;42.82;101819.28;6369119;22;45309;-89
2022/05/13 16:07:39;;;;;;;;;2.00;1.33;;;;;28.71;43.28;101811.50;6370121;22;45324;-90
2022/05/13 16:10:06;;;;;;;;;1.33;1.33;;;;;28.52;43.53;101814.47;6376017;22;45550;-89
2022/05/13 16:12:36;;;;;;;;;0.00;0.00;;;;;28.33;43.99;101811.97;6373799;22;47055;-89
2022/05/13 16:15:03;;;;;;;;;0.33;0.33;;;;;28.16;43.93;101808.59;6370526;22;45292;-90
2022/05/13 16:17:29;;;;;;;;;0.00;0.00;;;;;27.96;44.99;101807.91;6398328;22;45264;-88
2022/05/13 16:19:59;;;;;;;;;0.00;0.00;;;;;27.76;44.90;101805.38;6369209;22;45354;-88
2022/05/13 16:22:26;;;;;;;;;2.00;1.00;;;;;27.65;45.31;101806.38;6397463;22;45207;-88
2022/05/13 16:24:55;;;;;;;;;2.00;1.33;;;;;27.49;45.32;101802.06;6368531;22;45399;-89
2022/05/13 16:27:24;;;;;;;;;0.00;0.00;;;;;27.34;46.05;101807.56;6369394;22;45362;-90
2022/05/13 16:29:49;;;;;;;;;0.00;0.00;;;;;27.23;46.23;101804.09;6369246;22;45351;-89
2022/05/13 16:32:15;;;;;;;;;2.67;2.00;;;;;27.10;46.46;101803.25;6397504;22;47312;-89
2022/05/13 16:34:41;;;;;;;;;0.00;0.00;;;;;26.96;46.84;101804.22;6368912;22;45319;-88
2022/05/13 16:39:50;;;;;;;;;2.33;1.67;;;;;26.76;47.65;101802.56;6397963;22;45423;-89
2022/05/13 16:42:16;;;;;;;;;0.00;0.00;;;;;26.64;47.42;101798.16;6397839;22;45187;-89
2022/05/13 16:44:42;;;;;;;;;5.67;5.67;;;;;26.55;47.54;101798.19;6397088;22;45380;-89
2022/05/13 16:47:08;;;;;;;;;1.67;1.00;;;;;26.44;47.86;101807.22;6369414;22;45771;-89
2022/05/13 16:49:33;;;;;;;;;4.00;2.00;;;;;26.34;47.79;101802.75;6398435;22;45484;-90
2022/05/13 16:51:59;;;;;;;;;3.67;3.00;;;;;26.25;48.94;101811.75;6397750;22;46314;-89
2022/05/13 16:54:24;;;;;;;;;0.00;0.00;;;;;26.13;48.56;101806.44;6397986;22;45329;-89
2022/05/13 16:56:49;;;;;;;;;0.00;0.00;;;;;26.03;49.66;101800.19;6397635;22;48746;-88
2022/05/13 16:59:15;;;;;;;;;3.00;3.00;;;;;25.96;49.78;101800.19;6398043;22;45266;-89
2022/05/13 17:01:41;;;;;;;;;8.00;8.00;;;;;25.89;50.32;101809.19;6397187;22;45537;-88
2022/05/13 17:04:09;;;;;;;;;1.00;1.00;;;;;25.80;49.65;101802.00;6397280;22;45358;-88
2022/05/13 17:06:34;;;;;;;;;3.00;1.00;;;;;25.71;49.70;101793.94;6398335;22;45296;-89
2022/05/13 17:17:11;;;;;;;;;4.00;2.00;;;;;25.41;50.54;101805.59;6398238;22;45247;-88
2022/05/13 17:19:37;;;;;;;;;1.33;1.33;;;;;25.34;50.60;101811.88;6368293;22;45649;-87
2022/05/13 17:22:02;;;;;;;;;1.00;1.00;;;;;25.25;50.93;101802.03;6397891;22;46228;-87
2022/05/13 17:24:30;;;;;;;;;0.33;0.33;;;;;25.19;51.19;101807.41;6397310;22;45222;-89
2022/05/13 17:27:08;;;;;;;;;1.00;1.00;;;;;25.08;50.91;101800.22;6375436;22;45280;-89
2022/05/13 17:29:34;;;;;;;;;1.00;1.00;;;;;24.99;51.44;101797.50;6399404;22;45723;-88
2022/05/13 17:32:00;;;;;;;;;2.00;2.00;;;;;24.95;51.46;101801.97;6399104;22;45433;-88
2022/05/13 17:34:26;;;;;;;;;6.00;5.67;;;;;24.90;51.95;101798.38;6368414;22;45742;-89
2022/05/13 17:36:58;;;;;;;;;1.00;1.00;;;;;24.86;51.77;101800.19;6398150;22;45281;-89
2022/05/13 17:39:26;;;;;;;;;0.33;0.33;;;;;24.78;51.91;101794.78;6368822;22;45303;-89
2022/05/13 17:41:52;;;;;;;;;3.33;1.00;;;;;24.74;52.07;101800.16;6368637;22;48059;-87
2022/05/13 17:44:18;;;;;;;;;2.33;2.33;;;;;24.67;51.93;101788.47;6392128;22;45751;-88
2022/05/13 17:46:43;;;;;;;;;2.00;2.00;;;;;24.60;52.50;101792.03;6369342;22;45577;-88
2022/05/13 17:49:08;;;;;;;;;3.67;3.00;;;;;24.55;52.68;101789.34;6398119;22;45346;-89
2022/05/13 17:51:34;;;;;;;;;2.00;2.00;;;;;24.49;52.52;101794.69;6397302;22;49851;-88
2022/05/13 17:54:00;;;;;;;;;1.67;1.67;;;;;24.42;53.75;101793.78;6397726;22;45335;-88
2022/05/13 17:56:25;;;;;;;;;1.00;1.00;;;;;24.37;54.30;101791.09;6368868;22;49332;-89
2022/05/13 17:58:50;;;;;;;;;0.00;0.00;;;;;24.32;54.23;101793.75;6368276;22;45248;-87
2022/05/13 18:01:16;;;;;;;;;0.00;0.00;;;;;24.26;53.62;101792.78;6398264;22;46080;-88
2022/05/13 18:03:42;;;;;;;;;1.00;1.00;;;;;24.19;54.68;101792.75;6399226;22;45454;-90
2022/05/13 18:06:08;;;;;;;;;1.00;1.00;;;;;24.14;54.76;101796.31;6400265;22;45318;-87
2022/05/13 18:08:33;;;;;;;;;4.00;3.00;;;;;24.10;54.25;101790.00;6369735;22;45225;-89
2022/05/13 18:10:59;;;;;;;;;0.67;0.33;;;;;23.99;54.85;101777.44;6364810;22;48064;-87
2022/05/13 18:13:25;;;;;;;;;0.00;0.00;;;;;23.98;54.89;101783.72;6395719;22;45294;-87
2022/05/13 18:15:50;;;;;;;;;2.00;1.00;;;;;23.92;54.63;101778.31;6397713;22;45275;-88
2022/05/13 18:18:31;;;;;;;;;3.33;3.33;;;;;23.88;55.42;101790.81;6368424;22;45657;-87
2022/05/13 18:21:04;;;;;;;;;1.33;1.33;;;;;23.83;55.61;101788.97;6368676;22;46140;-87
2022/05/13 18:23:30;;;;;;;;;0.00;0.00;;;;;23.78;55.35;101786.28;6367393;22;45510;-88
2022/05/13 18:25:56;;;;;;;;;2.00;1.00;;;;;23.74;55.48;101789.81;6397552;22;45489;-87
2022/05/13 18:28:21;;;;;;;;;2.00;0.67;;;;;23.67;56.39;101778.16;6396279;22;45251;-88
2022/05/13 18:30:48;;;;;;;;;1.00;1.00;;;;;23.62;56.01;101774.53;6397912;22;45346;-87
2022/05/13 18:33:15;;;;;;;;;1.00;1.00;;;;;23.57;56.05;101781.66;6396913;22;45396;-88